Wetterdaten: Woche 24.01.05 - 30.01.05 (KW4)
Datum Zeit Temperatur Luftfeuchte Luftdruck Niederschlag Wind Richtung Sonne Solar Taupunkt Windchill
24.01.2005 00:00 -1.1 C 82 % 1017.8 hPa 0.0 l/m 7.7 km/h (2 Bft) W-NW 0.00 h 0 W/m -3.8 C -3.2 C
24.01.2005 01:00 -0.4 C 68 % 1017.5 hPa 0.0 l/m 20.5 km/h (4 Bft) W-NW 0.00 h 0 W/m -5.6 C -5.7 C
24.01.2005 02:00 -0.7 C 67 % 1016.4 hPa 0.0 l/m 6.8 km/h (2 Bft) W-NW 0.00 h 0 W/m -6.1 C -2.8 C
24.01.2005 03:00 -1.0 C 72 % 1015.6 hPa 0.0 l/m 7.5 km/h (2 Bft) W-NW 0.00 h 0 W/m -5.4 C -3.4 C
24.01.2005 04:00 -1.6 C 85 % 1015.0 hPa 0.0 l/m 2.6 km/h (1 Bft) SO 0.00 h 0 W/m -3.8 C -2.3 C
24.01.2005 05:00 -1.5 C 89 % 1014.6 hPa 0.0 l/m 1.8 km/h (1 Bft) SO 0.00 h 0 W/m -3.1 C -1.9 C
24.01.2005 06:00 -1.2 C 89 % 1013.7 hPa 0.0 l/m 11.9 km/h (2 Bft) W-NW 0.00 h 0 W/m -2.7 C -4.7 C
24.01.2005 07:00 -1.6 C 92 % 1013.6 hPa 0.6 l/m 2.6 km/h (1 Bft) W 0.00 h 0 W/m -2.6 C -2.2 C
24.01.2005 08:00 -2.0 C 94 % 1014.7 hPa 0.0 l/m 0.0 km/h (0 Bft) N 0.00 h 18 W/m -2.9 C -2.0 C
24.01.2005 09:00 -2.1 C 92 % 1014.7 hPa 0.0 l/m 0.0 km/h (0 Bft) N 0.00 h 64 W/m -3.3 C -2.1 C
24.01.2005 10:00 -1.4 C 84 % 1015.5 hPa 0.3 l/m 0.6 km/h (0 Bft) W-NW 0.00 h 151 W/m -3.7 C -1.4 C
24.01.2005 11:00 -0.6 C 77 % 1015.6 hPa 0.0 l/m 4.8 km/h (1 Bft) W-NW 0.53 h 239 W/m -4.1 C -2.1 C
24.01.2005 12:00 -1.0 C 78 % 1015.6 hPa 0.0 l/m 6.9 km/h (2 Bft) W-NW 0.00 h 101 W/m -4.4 C -3.0 C
24.01.2005 13:00 -1.3 C 78 % 1016.0 hPa 0.3 l/m 8.5 km/h (2 Bft) O 0.37 h 242 W/m -4.6 C -4.0 C
24.01.2005 14:00 -1.0 C 70 % 1016.7 hPa 0.0 l/m 1.7 km/h (1 Bft) O 0.13 h 177 W/m -5.7 C -1.6 C
24.01.2005 15:00 -1.2 C 67 % 1016.7 hPa 0.0 l/m 0.0 km/h (0 Bft) N 0.00 h 84 W/m -6.5 C -1.2 C
24.01.2005 16:00 -1.8 C 68 % 1017.2 hPa 0.0 l/m 0.0 km/h (0 Bft) N 0.00 h 34 W/m -6.8 C -1.8 C
24.01.2005 17:00 -2.5 C 80 % 1017.9 hPa 0.0 l/m 0.0 km/h (0 Bft) N 0.00 h 4 W/m -5.4 C -2.5 C
24.01.2005 18:00 -2.9 C 77 % 1018.0 hPa 0.0 l/m 0.0 km/h (0 Bft) N 0.00 h 0 W/m -6.4 C -2.9 C
24.01.2005 19:00 -3.8 C 82 % 1018.1 hPa 0.0 l/m 0.0 km/h (0 Bft) N 0.00 h 0 W/m -6.4 C -3.8 C
24.01.2005 20:00 -4.7 C 84 % 1018.6 hPa 0.0 l/m 0.0 km/h (0 Bft) N 0.00 h 0 W/m -6.9 C -4.7 C
24.01.2005 21:00 -4.3 C 86 % 1019.2 hPa 0.0 l/m 0.0 km/h (0 Bft) N 0.00 h 0 W/m -6.4 C -4.3 C
24.01.2005 22:00 -4.4 C 75 % 1019.1 hPa 0.0 l/m 0.0 km/h (0 Bft) N 0.00 h 0 W/m -8.1 C -4.4 C
24.01.2005 23:00 -4.3 C 79 % 1019.2 hPa 0.0 l/m 0.0 km/h (0 Bft) N 0.00 h 0 W/m -7.5 C -4.3 C
25.01.2005 00:00 -3.9 C 84 % 1018.6 hPa 0.0 l/m 0.0 km/h (0 Bft) N 0.00 h 0 W/m -6.3 C -3.9 C
25.01.2005 01:00 -3.4 C 70 % 1018.0 hPa 0.0 l/m 0.0 km/h (0 Bft) N 0.00 h 0 W/m -8.0 C -3.4 C
25.01.2005 02:00 -3.3 C 66 % 1018.0 hPa 0.0 l/m 0.0 km/h (0 Bft) N 0.00 h 0 W/m -8.8 C -3.3 C
25.01.2005 03:00 -3.5 C 66 % 1018.1 hPa 0.0 l/m 0.0 km/h (0 Bft) N 0.00 h 0 W/m -8.9 C -3.5 C
25.01.2005 04:00 -3.6 C 66 % 1018.1 hPa 0.0 l/m 0.0 km/h (0 Bft) N 0.00 h 0 W/m -8.9 C -3.6 C
25.01.2005 05:00 -3.7 C 64 % 1018.1 hPa 0.0 l/m 0.0 km/h (0 Bft) N 0.00 h 0 W/m -9.4 C -3.7 C
25.01.2005 06:00 -4.0 C 65 % 1018.2 hPa 0.0 l/m 0.0 km/h (0 Bft) N 0.00 h 0 W/m -9.6 C -4.0 C
25.01.2005 07:00 -3.8 C 65 % 1018.1 hPa 0.0 l/m 0.0 km/h (0 Bft) N 0.00 h 0 W/m -9.3 C -3.8 C
25.01.2005 08:00 -3.6 C 64 % 1018.1 hPa 0.0 l/m 0.0 km/h (0 Bft) N 0.00 h 36 W/m -9.4 C -3.6 C
25.01.2005 09:00 -2.9 C 62 % 1019.0 hPa 0.0 l/m 0.0 km/h (0 Bft) N 0.03 h 117 W/m -9.2 C -2.9 C
25.01.2005 10:00 -2.3 C 61 % 1018.9 hPa 0.0 l/m 0.0 km/h (0 Bft) N 0.33 h 187 W/m -8.9 C -2.3 C
25.01.2005 11:00 -2.0 C 59 % 1018.9 hPa 0.0 l/m 0.0 km/h (0 Bft) N 0.40 h 260 W/m -8.8 C -2.0 C
25.01.2005 12:00 -1.6 C 56 % 1017.9 hPa 0.0 l/m 4.4 km/h (1 Bft) N 0.40 h 261 W/m -9.3 C -2.8 C
25.01.2005 13:00 -1.7 C 56 % 1017.8 hPa 0.0 l/m 6.8 km/h (2 Bft) N-NO 0.00 h 193 W/m -9.4 C -4.1 C
25.01.2005 14:00 -1.5 C 56 % 1017.7 hPa 0.0 l/m 4.6 km/h (1 Bft) N 0.13 h 152 W/m -9.1 C -2.7 C
25.01.2005 15:00 -2.0 C 60 % 1017.8 hPa 0.0 l/m 3.9 km/h (1 Bft) N-NO 0.00 h 79 W/m -8.8 C -2.9 C
25.01.2005 16:00 -2.5 C 62 % 1017.8 hPa 0.0 l/m 3.7 km/h (1 Bft) O-NO 0.00 h 31 W/m -8.7 C -3.6 C
25.01.2005 17:00 -2.9 C 64 % 1018.0 hPa 0.0 l/m 1.9 km/h (1 Bft) N-NO 0.00 h 8 W/m -8.7 C -3.5 C
25.01.2005 18:00 -3.2 C 66 % 1018.0 hPa 0.0 l/m 0.6 km/h (0 Bft) N-NO 0.00 h 0 W/m -8.6 C -3.3 C
25.01.2005 19:00 -3.4 C 67 % 1018.1 hPa 0.0 l/m 0.6 km/h (0 Bft) NO 0.00 h 0 W/m -8.7 C -3.5 C
25.01.2005 20:00 -3.3 C 68 % 1018.0 hPa 0.0 l/m 1.3 km/h (1 Bft) NO 0.00 h 0 W/m -8.5 C -3.8 C
25.01.2005 21:00 -3.9 C 69 % 1018.1 hPa 0.0 l/m 0.2 km/h (0 Bft) O-NO 0.00 h 0 W/m -8.6 C -3.9 C
25.01.2005 22:00 -4.9 C 74 % 1018.3 hPa 0.0 l/m 0.0 km/h (0 Bft) N 0.00 h 0 W/m -8.9 C -4.9 C
25.01.2005 23:00 -4.6 C 69 % 1018.2 hPa 0.0 l/m 0.2 km/h (0 Bft) N 0.00 h 0 W/m -9.3 C -4.6 C
26.01.2005 00:00 -4.2 C 68 % 1018.2 hPa 0.0 l/m 0.3 km/h (0 Bft) N-NO 0.00 h 0 W/m -9.2 C -4.3 C
26.01.2005 01:00 -4.2 C 67 % 1018.1 hPa 0.0 l/m 3.3 km/h (1 Bft) O 0.00 h 0 W/m -9.3 C -5.2 C
26.01.2005 02:00 -4.7 C 64 % 1017.2 hPa 0.0 l/m 4.3 km/h (1 Bft) O 0.00 h 0 W/m -10.4 C -6.3 C
26.01.2005 03:00 -4.7 C 64 % 1017.2 hPa 0.0 l/m 7.6 km/h (2 Bft) O 0.00 h 0 W/m -10.4 C -7.1 C
26.01.2005 04:00 -5.1 C 63 % 1017.3 hPa 0.0 l/m 5.4 km/h (1 Bft) O 0.00 h 0 W/m -11.1 C -6.8 C
26.01.2005 05:00 -5.6 C 64 % 1017.4 hPa 0.0 l/m 3.8 km/h (1 Bft) NO 0.00 h 0 W/m -11.4 C -6.9 C
26.01.2005 06:00 -5.5 C 64 % 1017.9 hPa 0.0 l/m 1.5 km/h (1 Bft) O-NO 0.00 h 0 W/m -11.3 C -6.0 C
26.01.2005 07:00 -5.5 C 58 % 1018.4 hPa 0.0 l/m 9.8 km/h (2 Bft) O-NO 0.00 h 0 W/m -12.4 C -8.9 C
26.01.2005 08:00 -5.6 C 62 % 1019.2 hPa 0.0 l/m 4.3 km/h (1 Bft) N 0.00 h 29 W/m -11.8 C -7.0 C
26.01.2005 09:00 -5.1 C 61 % 1019.4 hPa 0.0 l/m 6.1 km/h (2 Bft) O 0.53 h 124 W/m -11.4 C -7.2 C
26.01.2005 10:00 -4.5 C 58 % 1019.3 hPa 0.0 l/m 8.9 km/h (2 Bft) N-NO 0.60 h 207 W/m -11.5 C -8.0 C
26.01.2005 11:00 -3.2 C 55 % 1019.1 hPa 0.0 l/m 11.6 km/h (2 Bft) NO 0.50 h 240 W/m -11.0 C -7.1 C
26.01.2005 12:00 -2.9 C 56 % 1019.0 hPa 0.0 l/m 10.2 km/h (2 Bft) NO 0.00 h 170 W/m -10.3 C -5.9 C
26.01.2005 13:00 -2.3 C 54 % 1018.9 hPa 0.0 l/m 10.6 km/h (2 Bft) O-NO 0.00 h 191 W/m -10.4 C -5.6 C
26.01.2005 14:00 -1.6 C 47 % 1018.8 hPa 0.0 l/m 17.8 km/h (3 Bft) O 0.70 h 301 W/m -11.6 C -6.6 C
26.01.2005 15:00 -2.3 C 54 % 1018.9 hPa 0.0 l/m 9.8 km/h (2 Bft) O-NO 0.08 h 116 W/m -10.4 C -5.3 C
26.01.2005 16:00 -3.3 C 67 % 1020.1 hPa 0.0 l/m 2.8 km/h (1 Bft) NO 0.00 h 33 W/m -8.5 C -4.3 C
26.01.2005 17:00 -4.0 C 74 % 1019.4 hPa 0.0 l/m 0.2 km/h (0 Bft) N 0.03 h 11 W/m -8.0 C -4.0 C
26.01.2005 18:00 -4.1 C 79 % 1020.2 hPa 0.3 l/m 0.7 km/h (0 Bft) NO 0.00 h 0 W/m -7.2 C -4.3 C
26.01.2005 19:00 -4.4 C 74 % 1020.3 hPa 0.0 l/m 0.8 km/h (0 Bft) NO 0.00 h 0 W/m -8.4 C -4.5 C
26.01.2005 20:00 -4.3 C 67 % 1020.3 hPa 0.0 l/m 4.2 km/h (1 Bft) N-NO 0.00 h 0 W/m -9.5 C -5.6 C
26.01.2005 21:00 -4.7 C 65 % 1020.0 hPa 0.0 l/m 5.0 km/h (1 Bft) NO 0.00 h 0 W/m -10.2 C -6.4 C
26.01.2005 22:00 -5.2 C 66 % 1019.5 hPa 0.0 l/m 2.9 km/h (1 Bft) NO 0.00 h 0 W/m -10.6 C -6.0 C
26.01.2005 23:00 -5.1 C 64 % 1019.9 hPa 0.0 l/m 4.1 km/h (1 Bft) N-NO 0.00 h 0 W/m -10.8 C -6.5 C
27.01.2005 00:00 -5.5 C 66 % 1020.5 hPa 0.0 l/m 4.2 km/h (1 Bft) NO 0.00 h 0 W/m -10.8 C -7.0 C
27.01.2005 01:00 -5.9 C 63 % 1020.5 hPa 0.0 l/m 7.0 km/h (2 Bft) NO 0.00 h 0 W/m -11.9 C -8.8 C
27.01.2005 02:00 -6.2 C 61 % 1020.5 hPa 0.0 l/m 5.6 km/h (1 Bft) N-NO 0.00 h 0 W/m -12.5 C -8.3 C
27.01.2005 03:00 -7.0 C 61 % 1019.7 hPa 0.0 l/m 8.8 km/h (2 Bft) NO 0.00 h 0 W/m -13.4 C -10.9 C
27.01.2005 04:00 -7.9 C 62 % 1019.8 hPa 0.0 l/m 2.8 km/h (1 Bft) NO 0.00 h 0 W/m -13.9 C -8.9 C
27.01.2005 05:00 -8.0 C 60 % 1019.8 hPa 0.0 l/m 8.4 km/h (2 Bft) N-NO 0.00 h 0 W/m -14.4 C -11.7 C
27.01.2005 06:00 -8.2 C 59 % 1019.8 hPa 0.0 l/m 5.8 km/h (1 Bft) NO 0.00 h 0 W/m -14.8 C -10.8 C
27.01.2005 07:00 -8.6 C 60 % 1019.9 hPa 0.0 l/m 3.6 km/h (1 Bft) NO 0.00 h 0 W/m -15.0 C -10.0 C
27.01.2005 08:00 -8.8 C 63 % 1020.9 hPa 0.0 l/m 0.1 km/h (0 Bft) N 0.03 h 38 W/m -14.5 C -8.8 C
27.01.2005 09:00 -7.8 C 61 % 1020.3 hPa 0.0 l/m 3.6 km/h (1 Bft) O-SO 0.03 h 102 W/m -14.1 C -9.5 C
27.01.2005 10:00 -6.7 C 57 % 1019.8 hPa 0.0 l/m 3.0 km/h (1 Bft) O 0.03 h 143 W/m -13.8 C -7.7 C
27.01.2005 11:00 -5.3 C 52 % 1019.4 hPa 0.0 l/m 4.1 km/h (1 Bft) NO 0.25 h 218 W/m -13.6 C -6.9 C
27.01.2005 12:00 -4.9 C 50 % 1019.3 hPa 0.0 l/m 4.6 km/h (1 Bft) NO 0.00 h 190 W/m -13.6 C -6.8 C
27.01.2005 13:00 -4.3 C 50 % 1019.2 hPa 0.0 l/m 6.1 km/h (2 Bft) O-SO 0.47 h 271 W/m -13.1 C -6.5 C
27.01.2005 14:00 -3.7 C 50 % 1018.1 hPa 0.0 l/m 13.7 km/h (3 Bft) O-SO 0.93 h 266 W/m -12.6 C -8.7 C
27.01.2005 15:00 -4.2 C 52 % 1018.2 hPa 0.0 l/m 10.3 km/h (2 Bft) O-SO 0.17 h 138 W/m -12.7 C -8.3 C
27.01.2005 16:00 -4.9 C 53 % 1018.3 hPa 0.0 l/m 7.1 km/h (2 Bft) O-SO 0.00 h 58 W/m -13.0 C -7.8 C
27.01.2005 17:00 -6.7 C 55 % 1018.6 hPa 0.0 l/m 3.1 km/h (1 Bft) O-SO 0.00 h 10 W/m -14.1 C -7.4 C
27.01.2005 18:00 -8.1 C 61 % 1018.8 hPa 0.0 l/m 1.8 km/h (1 Bft) O-SO 0.00 h 0 W/m -14.3 C -8.7 C
27.01.2005 19:00 -9.3 C 66 % 1019.0 hPa 0.0 l/m 7.6 km/h (2 Bft) O-SO 0.00 h 0 W/m -14.3 C -13.3 C
27.01.2005 20:00 -10.3 C 71 % 1019.1 hPa 0.0 l/m 3.2 km/h (1 Bft) O-SO 0.00 h 0 W/m -14.6 C -11.7 C
27.01.2005 21:00 -10.2 C 73 % 1019.1 hPa 0.0 l/m 5.3 km/h (1 Bft) O-SO 0.00 h 0 W/m -14.1 C -12.9 C
27.01.2005 22:00 -10.8 C 75 % 1019.2 hPa 0.0 l/m 6.3 km/h (2 Bft) O 0.00 h 0 W/m -14.4 C -14.5 C
27.01.2005 23:00 -10.6 C 76 % 1019.0 hPa 0.0 l/m 6.6 km/h (2 Bft) O-SO 0.00 h 0 W/m -14.0 C -14.1 C
28.01.2005 00:00 -9.7 C 75 % 1018.0 hPa 0.0 l/m 2.2 km/h (1 Bft) O-SO 0.00 h 0 W/m -13.3 C -10.7 C
28.01.2005 01:00 -9.2 C 75 % 1017.9 hPa 0.0 l/m 0.0 km/h (0 Bft) N 0.00 h 0 W/m -12.7 C -9.2 C
28.01.2005 02:00 -8.9 C 76 % 1017.5 hPa 0.0 l/m 0.1 km/h (0 Bft) O-SO 0.00 h 0 W/m -12.4 C -8.9 C
28.01.2005 03:00 -8.9 C 75 % 1016.5 hPa 0.0 l/m 0.5 km/h (0 Bft) SO 0.00 h 0 W/m -12.5 C -8.9 C
28.01.2005 04:00 -9.1 C 74 % 1015.8 hPa 0.0 l/m 0.1 km/h (0 Bft) N 0.00 h 0 W/m -12.8 C -9.1 C
28.01.2005 05:00 -9.3 C 75 % 1015.8 hPa 0.0 l/m 2.3 km/h (1 Bft) O-SO 0.00 h 0 W/m -12.9 C -10.4 C
28.01.2005 06:00 -9.6 C 75 % 1015.9 hPa 0.0 l/m 0.6 km/h (0 Bft) O-SO 0.00 h 0 W/m -13.1 C -9.7 C
28.01.2005 07:00 -9.2 C 76 % 1015.8 hPa 0.0 l/m 0.0 km/h (0 Bft) N 0.00 h 0 W/m -12.7 C -9.2 C
28.01.2005 08:00 -9.1 C 75 % 1016.3 hPa 0.0 l/m 0.0 km/h (0 Bft) N 0.03 h 33 W/m -12.7 C -9.1 C
28.01.2005 09:00 -8.7 C 73 % 1016.4 hPa 0.0 l/m 0.0 km/h (0 Bft) N 0.40 h 125 W/m -12.6 C -8.7 C
28.01.2005 10:00 -7.5 C 68 % 1016.0 hPa 0.0 l/m 3.4 km/h (1 Bft) O-SO 0.93 h 274 W/m -12.4 C -9.1 C
28.01.2005 11:00 -6.3 C 64 % 1015.4 hPa 0.0 l/m 6.8 km/h (2 Bft) O-SO 1.00 h 388 W/m -11.9 C -9.5 C
28.01.2005 12:00 -5.1 C 60 % 1014.7 hPa 0.0 l/m 4.3 km/h (1 Bft) O-SO 1.00 h 441 W/m -11.7 C -6.7 C
28.01.2005 13:00 -2.8 C 54 % 1013.8 hPa 0.0 l/m 6.0 km/h (2 Bft) O-SO 1.00 h 461 W/m -10.9 C -5.2 C
28.01.2005 14:00 -2.0 C 51 % 1013.7 hPa 0.0 l/m 3.7 km/h (1 Bft) O-SO 0.77 h 255 W/m -10.7 C -3.4 C
28.01.2005 15:00 -2.5 C 53 % 1013.8 hPa 0.0 l/m 3.8 km/h (1 Bft) O-SO 0.10 h 137 W/m -10.7 C -3.5 C
28.01.2005 16:00 -3.4 C 58 % 1013.9 hPa 0.0 l/m 6.0 km/h (2 Bft) O-SO 0.00 h 53 W/m -10.4 C -5.6 C
28.01.2005 17:00 -4.4 C 64 % 1014.0 hPa 0.0 l/m 7.3 km/h (2 Bft) O-SO 0.00 h 10 W/m -10.2 C -7.6 C
28.01.2005 18:00 -4.7 C 64 % 1014.1 hPa 0.0 l/m 3.5 km/h (1 Bft) O-SO 0.00 h 0 W/m -10.4 C -5.8 C
28.01.2005 19:00 -4.9 C 64 % 1014.3 hPa 0.0 l/m 5.3 km/h (1 Bft) O-SO 0.00 h 0 W/m -10.6 C -6.9 C
28.01.2005 20:00 -5.2 C 66 % 1015.2 hPa 0.0 l/m 5.3 km/h (1 Bft) O-SO 0.00 h 0 W/m -10.6 C -7.3 C
28.01.2005 21:00 -5.6 C 73 % 1015.3 hPa 0.0 l/m 2.4 km/h (1 Bft) O-NO 0.00 h 0 W/m -9.6 C -6.5 C
28.01.2005 22:00 -6.1 C 76 % 1015.3 hPa 0.0 l/m 1.7 km/h (1 Bft) O 0.00 h 0 W/m -9.6 C -6.6 C
28.01.2005 23:00 -6.6 C 80 % 1015.4 hPa 0.0 l/m 0.3 km/h (0 Bft) O 0.00 h 0 W/m -9.5 C -6.7 C
29.01.2005 00:00 -7.2 C 82 % 1016.1 hPa 0.0 l/m 0.6 km/h (0 Bft) O 0.00 h 0 W/m -9.8 C -7.5 C
29.01.2005 01:00 -8.3 C 80 % 1016.7 hPa 0.0 l/m 0.2 km/h (0 Bft) O-NO 0.00 h 0 W/m -11.0 C -8.4 C
29.01.2005 02:00 -9.9 C 79 % 1017.0 hPa 0.0 l/m 3.7 km/h (1 Bft) O-SO 0.00 h 0 W/m -12.8 C -11.8 C
29.01.2005 03:00 -10.7 C 81 % 1018.1 hPa 0.0 l/m 4.4 km/h (1 Bft) O-SO 0.00 h 0 W/m -13.3 C -13.2 C
29.01.2005 04:00 -10.7 C 80 % 1018.2 hPa 0.0 l/m 0.6 km/h (0 Bft) O 0.00 h 0 W/m -13.5 C -10.9 C
29.01.2005 05:00 -11.8 C 77 % 1019.4 hPa 0.0 l/m 0.8 km/h (0 Bft) O-SO 0.00 h 0 W/m -15.0 C -11.8 C
29.01.2005 06:00 -11.6 C 78 % 1019.7 hPa 0.0 l/m 0.4 km/h (0 Bft) O-SO 0.00 h 0 W/m -14.7 C -11.6 C
29.01.2005 07:00 -10.9 C 75 % 1020.3 hPa 0.0 l/m 0.1 km/h (0 Bft) O-NO 0.00 h 0 W/m -14.4 C -10.9 C
29.01.2005 08:00 -10.2 C 71 % 1021.0 hPa 0.0 l/m 0.5 km/h (0 Bft) O-NO 0.00 h 23 W/m -14.5 C -10.4 C
29.01.2005 09:00 -9.6 C 65 % 1022.0 hPa 0.0 l/m 2.7 km/h (1 Bft) O-NO 0.00 h 70 W/m -14.9 C -10.8 C
29.01.2005 10:00 -8.9 C 62 % 1022.3 hPa 0.0 l/m 6.5 km/h (2 Bft) O-NO 0.27 h 172 W/m -14.8 C -11.9 C
29.01.2005 11:00 -7.8 C 58 % 1022.9 hPa 0.0 l/m 12.4 km/h (3 Bft) O 0.62 h 300 W/m -14.5 C -13.0 C
29.01.2005 12:00 -7.0 C 56 % 1022.8 hPa 0.0 l/m 13.8 km/h (3 Bft) O-SO 1.00 h 447 W/m -14.2 C -12.4 C
29.01.2005 13:00 -5.7 C 52 % 1022.5 hPa 0.0 l/m 14.5 km/h (3 Bft) O-SO 1.00 h 426 W/m -13.8 C -11.2 C
29.01.2005 14:00 -5.0 C 51 % 1022.5 hPa 0.0 l/m 14.3 km/h (3 Bft) O-SO 1.00 h 363 W/m -13.6 C -10.3 C
29.01.2005 15:00 -4.7 C 49 % 1022.8 hPa 0.0 l/m 14.8 km/h (3 Bft) O-SO 1.00 h 267 W/m -13.8 C -10.1 C
29.01.2005 16:00 -5.2 C 47 % 1023.7 hPa 0.0 l/m 10.7 km/h (2 Bft) O 1.00 h 120 W/m -14.8 C -9.0 C
29.01.2005 17:00 -6.1 C 50 % 1024.9 hPa 0.0 l/m 5.1 km/h (1 Bft) N-NO 0.17 h 18 W/m -14.8 C -8.0 C
29.01.2005 18:00 -7.6 C 59 % 1026.0 hPa 0.0 l/m 1.3 km/h (1 Bft) N-NO 0.00 h 0 W/m -14.1 C -7.9 C
29.01.2005 19:00 -8.5 C 64 % 1027.1 hPa 0.0 l/m 1.0 km/h (0 Bft) NO 0.00 h 0 W/m -14.1 C -8.7 C
29.01.2005 20:00 -9.0 C 64 % 1028.1 hPa 0.0 l/m 0.3 km/h (0 Bft) O-NO 0.00 h 0 W/m -14.6 C -9.0 C
29.01.2005 21:00 -9.8 C 65 % 1029.3 hPa 0.0 l/m 2.3 km/h (1 Bft) NO 0.00 h 0 W/m -15.1 C -10.8 C
29.01.2005 22:00 -10.4 C 69 % 1029.8 hPa 0.0 l/m 3.6 km/h (1 Bft) O-SO 0.00 h 0 W/m -14.9 C -12.1 C
29.01.2005 23:00 -10.7 C 70 % 1030.6 hPa 0.0 l/m 1.6 km/h (1 Bft) NO 0.00 h 0 W/m -15.1 C -11.3 C
30.01.2005 00:00 -12.0 C 73 % 1030.9 hPa 0.0 l/m 6.5 km/h (2 Bft) O-SO 0.00 h 0 W/m -15.8 C -15.8 C
30.01.2005 01:00 -12.6 C 76 % 1031.0 hPa 0.0 l/m 5.7 km/h (1 Bft) O-SO 0.00 h 0 W/m -15.9 C -15.9 C
30.01.2005 02:00 -13.0 C 77 % 1032.0 hPa 0.0 l/m 3.7 km/h (1 Bft) O-SO 0.00 h 0 W/m -16.2 C -15.2 C
30.01.2005 03:00 -13.3 C 78 % 1032.1 hPa 0.0 l/m 2.1 km/h (1 Bft) O 0.00 h 0 W/m -16.2 C -14.5 C
30.01.2005 04:00 -13.6 C 77 % 1032.2 hPa 0.0 l/m 1.4 km/h (1 Bft) O-SO 0.00 h 0 W/m -16.6 C -14.3 C
30.01.2005 05:00 -13.9 C 78 % 1032.3 hPa 0.0 l/m 2.4 km/h (1 Bft) O-SO 0.00 h 0 W/m -16.9 C -15.0 C
30.01.2005 06:00 -14.1 C 77 % 1033.2 hPa 0.0 l/m 1.1 km/h (0 Bft) O-SO 0.00 h 0 W/m -17.2 C -14.4 C
30.01.2005 07:00 -14.4 C 77 % 1033.3 hPa 0.0 l/m 0.7 km/h (0 Bft) O 0.00 h 0 W/m -17.5 C -14.7 C
30.01.2005 08:00 -13.7 C 77 % 1033.8 hPa 0.0 l/m 1.8 km/h (1 Bft) O 0.40 h 48 W/m -16.9 C -14.5 C
30.01.2005 09:00 -11.6 C 74 % 1033.9 hPa 0.0 l/m 0.0 km/h (0 Bft) N 1.00 h 199 W/m -15.3 C -11.6 C
30.01.2005 10:00 -9.7 C 68 % 1033.6 hPa 0.0 l/m 1.2 km/h (1 Bft) W-NW 1.00 h 327 W/m -14.4 C -10.1 C
30.01.2005 11:00 -6.9 C 59 % 1033.2 hPa 0.0 l/m 6.3 km/h (2 Bft) O-SO 1.00 h 387 W/m -13.5 C -9.6 C
30.01.2005 12:00 -4.8 C 53 % 1032.8 hPa 0.0 l/m 7.0 km/h (2 Bft) O-SO 1.00 h 409 W/m -12.8 C -7.8 C
30.01.2005 13:00 -3.6 C 49 % 1031.8 hPa 0.0 l/m 1.3 km/h (1 Bft) O-NO 1.00 h 327 W/m -12.7 C -3.9 C
30.01.2005 14:00 -2.7 C 48 % 1031.5 hPa 0.0 l/m 7.6 km/h (2 Bft) O 1.00 h 286 W/m -12.2 C -5.5 C
30.01.2005 15:00 -2.7 C 49 % 1031.5 hPa 0.0 l/m 7.5 km/h (2 Bft) O-SO 0.45 h 163 W/m -11.8 C -5.4 C
30.01.2005 16:00 -3.3 C 53 % 1031.6 hPa 0.0 l/m 5.1 km/h (1 Bft) O-SO 0.00 h 63 W/m -11.6 C -5.2 C
30.01.2005 17:00 -3.9 C 55 % 1031.7 hPa 0.0 l/m 0.9 km/h (0 Bft) O-SO 0.03 h 13 W/m -11.6 C -4.1 C
30.01.2005 18:00 -4.6 C 59 % 1032.4 hPa 0.0 l/m 4.1 km/h (1 Bft) O-SO 0.00 h 0 W/m -11.3 C -5.9 C
30.01.2005 19:00 -4.6 C 61 % 1032.8 hPa 0.0 l/m 2.4 km/h (1 Bft) O-SO 0.00 h 0 W/m -11.0 C -5.2 C
30.01.2005 20:00 -4.6 C 61 % 1032.8 hPa 0.0 l/m 5.2 km/h (1 Bft) O-SO 0.00 h 0 W/m -10.9 C -6.9 C
30.01.2005 21:00 -4.6 C 60 % 1032.8 hPa 0.0 l/m 0.9 km/h (0 Bft) O-SO 0.00 h 0 W/m -11.2 C -4.7 C
30.01.2005 22:00 -4.7 C 58 % 1032.8 hPa 0.0 l/m 0.0 km/h (0 Bft) N 0.00 h 0 W/m -11.7 C -4.7 C
30.01.2005 23:00 -4.9 C 58 % 1032.9 hPa 0.0 l/m 0.3 km/h (0 Bft) SO 0.00 h 0 W/m -11.8 C -4.9 C
Min-Datum _ 30.01.05 30.01.05 24.01.05 - 24.01.05 - - - 30.01.05 30.01.05
_ Min-Zeit 07:00 14:32 06:42 - 00:06 - - - 07:00 08:00
Minimum _ -14.9 C 41 % 1013.5 hPa - 0.0 km/h (0 Bft) - - - -18.2 C -19.6 C
Max-Datum _ 24.01.05 24.01.05 30.01.05 24.01.05 26.01.05 - 26.01.05 30.01.05 24.01.05 24.01.05
_ Max-Zeit 14:08 07:40 08:26 07:00 14:09 - 09:33 12:20 06:18 14:10
Maximum _ 0.0 C 94 % 1034.3 hPa 0.6 l/m 37.1 km/h
O (5 Bft)
- 0.05 h 633 W/m -2.2 C 0.0 C
Durchschnitt _ -5.7 C 67 % 1020.5 hPa #1.5 l/m 3.8 km/h (1 Bft) O-SO #24:52 h 170 W/m -11.0 C -7.1 C

Durchschnitt Minimum Temp.-6.2 C
Durchschnitt Maximum Temp.-5.3 C
© Kaiko 2005